createdAt,value
2018-02-14T01:27:24.377Z,23.10
2018-02-14T01:30:00.920Z,16.50
2018-02-14T01:32:37.353Z,20.23
2018-02-14T01:35:16.003Z,25.63
2018-02-14T01:40:52.164Z,16.90
2018-02-14T01:43:23.229Z,19.20
2018-02-14T01:45:53.245Z,17.50
2018-02-14T01:48:23.835Z,16.40
2018-02-14T01:50:53.734Z,18.80
2018-02-14T01:53:24.296Z,24.07
2018-02-14T01:55:54.914Z,17.57
2018-02-14T01:58:24.774Z,17.17
2018-02-14T02:00:54.754Z,18.60
2018-02-14T02:03:25.510Z,19.63
2018-02-14T06:45:38.041Z,21.27
2018-02-14T06:48:07.935Z,25.23
2018-02-14T06:50:37.825Z,21.77
2018-02-14T06:53:09.398Z,28.67
2018-02-14T06:55:41.333Z,24.00
2018-02-14T06:58:13.391Z,25.00
2018-02-14T07:00:46.360Z,17.97
2018-02-14T07:03:16.826Z,21.87
2018-02-14T07:05:51.307Z,16.50
2018-02-14T07:08:24.671Z,16.60
2018-02-14T07:10:54.610Z,25.90
2018-02-14T07:13:25.454Z,18.97
2018-02-14T07:16:01.731Z,24.33
2018-02-14T07:18:36.246Z,26.30
2018-02-14T07:21:30.414Z,22.03
2018-02-14T07:42:40.836Z,19.67
2018-02-14T07:53:58.519Z,17.97
2018-02-14T08:15:29.335Z,26.10
2018-02-14T08:30:37.776Z,28.40
2018-02-14T08:33:08.553Z,18.27
2018-02-14T10:29:49.884Z,14.93
2018-02-14T10:58:49.425Z,18.90
2018-02-14T11:01:26.131Z,15.57
2018-02-14T11:17:51.783Z,22.30
2018-02-14T11:20:25.691Z,27.33
2018-02-14T11:22:57.063Z,17.07
2018-02-14T11:25:27.002Z,27.30
2018-02-14T11:27:56.861Z,15.73
2018-02-14T11:30:26.713Z,13.23
2018-02-14T11:32:58.042Z,15.30
2018-02-14T11:35:29.592Z,16.27
2018-02-14T11:37:59.770Z,11.90
2018-02-14T11:40:30.548Z,13.50
2018-02-14T11:43:00.439Z,22.23
2018-02-14T11:45:30.418Z,12.07
2018-02-14T11:48:00.573Z,14.13
2018-02-14T11:50:31.189Z,17.73
2018-02-14T11:53:01.916Z,20.47
2018-02-14T11:55:32.045Z,15.10
2018-02-14T11:58:06.034Z,18.40
2018-02-14T12:00:36.135Z,14.23
2018-02-14T12:03:08.809Z,10.60
2018-02-14T12:18:04.342Z,21.77
2018-02-14T12:51:26.829Z,13.53
2018-02-14T12:53:56.953Z,17.57
2018-02-14T13:12:01.690Z,11.20
2018-02-14T13:14:31.754Z,16.90
2018-02-14T13:30:28.273Z,16.63
2018-02-14T13:45:54.311Z,13.87
2018-02-14T13:48:28.449Z,14.97
2018-02-14T13:50:58.402Z,16.27
2018-02-14T13:53:28.709Z,11.67
2018-02-14T13:55:58.802Z,15.83
2018-02-14T13:58:30.044Z,13.10
2018-02-14T14:01:01.621Z,17.63
2018-02-14T14:03:32.099Z,15.67
2018-02-14T14:06:01.934Z,14.00
2018-02-14T14:14:46.381Z,21.63
2018-02-14T14:17:16.351Z,15.27
2018-02-14T14:34:55.854Z,20.77
2018-02-14T14:37:26.159Z,22.83
2018-02-14T14:42:53.503Z,18.37
2018-02-14T14:45:24.814Z,25.80
2018-02-14T14:47:54.779Z,17.13
2018-02-14T14:50:24.986Z,16.33
2018-02-14T14:52:54.953Z,15.13
2018-02-14T14:55:25.173Z,15.83
2018-02-14T14:57:55.018Z,17.53
2018-02-14T15:00:26.024Z,21.80
2018-02-14T15:02:56.915Z,22.97
2018-02-14T15:05:33.071Z,16.47
2018-02-14T15:08:22.408Z,17.00
2018-02-14T15:10:52.758Z,23.43
2018-02-14T15:13:22.664Z,16.77
2018-02-14T15:15:53.154Z,21.47
2018-02-14T15:18:31.623Z,17.67
2018-02-14T15:21:03.532Z,17.20
2018-02-14T15:23:34.487Z,20.30
2018-02-14T15:26:04.842Z,16.13
2018-02-14T15:28:34.830Z,20.50
2018-02-14T15:31:06.133Z,19.43
2018-02-14T15:33:36.640Z,17.40
2018-02-14T15:36:07.152Z,18.37
2018-02-14T15:38:37.487Z,16.07
2018-02-14T15:41:07.945Z,18.47
2018-02-14T15:43:38.847Z,24.00
2018-02-14T15:46:09.303Z,19.53
2018-02-14T15:48:39.803Z,20.30
2018-02-14T15:51:10.209Z,23.73
2018-02-14T15:53:41.015Z,16.83
2018-02-14T15:56:12.506Z,19.33
2018-02-14T15:58:42.463Z,19.80
2018-02-14T16:01:13.924Z,22.47
2018-02-14T16:03:43.918Z,19.63
2018-02-14T16:06:15.035Z,23.37
2018-02-14T16:08:44.957Z,14.07
2018-02-14T16:11:15.121Z,21.20
2018-02-14T16:13:45.099Z,20.07
2018-02-14T16:16:15.346Z,15.47
2018-02-14T16:18:45.497Z,19.33
2018-02-14T16:21:15.676Z,16.90
2018-02-14T16:23:45.515Z,18.43
2018-02-14T16:26:15.737Z,21.20
2018-02-14T16:28:45.675Z,21.00
2018-02-14T16:31:15.842Z,20.90
2018-02-14T16:33:45.691Z,17.07
2018-02-14T16:36:15.968Z,21.47
2018-02-14T16:38:45.989Z,18.97
2018-02-14T16:41:16.298Z,18.77
2018-02-14T16:43:46.224Z,18.43
2018-02-14T16:46:16.400Z,24.87
2018-02-14T16:48:46.256Z,19.93
2018-02-14T16:51:16.189Z,23.17
2018-02-14T16:53:46.372Z,30.33
2018-02-14T16:56:16.218Z,24.10
2018-02-14T16:58:46.125Z,21.30
2018-02-14T17:01:16.308Z,23.07
2018-02-14T17:03:46.214Z,21.10
2018-02-14T17:06:16.141Z,22.30
2018-02-14T17:08:46.464Z,23.77
2018-02-14T17:11:16.634Z,28.17
2018-02-14T17:13:46.805Z,22.10
2018-02-14T17:16:16.915Z,24.27
2018-02-14T17:18:46.919Z,22.20
2018-02-14T17:21:16.842Z,24.97
2018-02-14T17:23:46.997Z,25.47
2018-02-14T17:26:16.961Z,20.63
2018-02-14T17:28:46.964Z,23.50
2018-02-14T17:31:16.853Z,23.47
2018-02-14T17:33:46.830Z,23.40
2018-02-14T17:36:16.719Z,19.33
2018-02-14T17:38:54.136Z,25.10
2018-02-14T17:41:24.158Z,25.00
2018-02-14T17:43:54.152Z,24.37
2018-02-14T17:46:24.026Z,26.03
2018-02-14T17:49:08.964Z,24.47
2018-02-14T17:51:38.833Z,20.20
2018-02-14T17:54:08.973Z,23.47
2018-02-14T17:56:39.883Z,24.40
2018-02-14T17:59:09.907Z,22.00
2018-02-14T18:01:39.769Z,26.90
2018-02-14T18:04:09.718Z,26.03
2018-02-14T18:06:39.701Z,21.33
2018-02-14T18:09:09.574Z,24.93
2018-02-14T18:11:39.426Z,26.47
2018-02-14T18:14:09.284Z,26.10
2018-02-14T18:16:39.138Z,27.63
2018-02-14T18:19:09.050Z,30.80
2018-02-14T18:21:38.921Z,20.57
2018-02-14T18:24:08.764Z,23.00
2018-02-14T18:26:38.654Z,26.27
2018-02-14T18:29:14.788Z,20.40
2018-02-14T18:31:44.684Z,30.07
2018-02-14T18:34:14.541Z,30.73
2018-02-14T18:36:44.483Z,31.53
2018-02-14T18:39:14.446Z,25.07
2018-02-14T18:41:44.368Z,25.97
2018-02-14T18:44:14.238Z,24.87
2018-02-14T18:46:44.116Z,23.70
2018-02-14T18:49:14.179Z,31.53
2018-02-14T18:51:44.156Z,34.53
2018-02-14T18:54:14.118Z,25.67
2018-02-14T18:56:44.056Z,24.00
2018-02-14T18:59:14.309Z,30.30
2018-02-14T19:01:44.479Z,28.83
2018-02-14T19:04:14.376Z,26.93
2018-02-14T19:06:44.211Z,26.67
2018-02-14T19:09:14.079Z,29.40
2018-02-14T19:11:43.996Z,24.57
2018-02-14T19:14:13.996Z,21.87
2018-02-14T19:16:43.886Z,23.90
2018-02-14T19:19:13.791Z,28.90
2018-02-14T19:21:43.755Z,26.07
2018-02-14T19:24:14.730Z,33.00
2018-02-14T19:26:44.771Z,23.93
2018-02-14T19:29:14.657Z,26.33
2018-02-14T19:31:44.535Z,22.60
2018-02-14T19:34:14.442Z,26.10
2018-02-14T19:36:44.308Z,29.17
2018-02-14T19:39:14.178Z,22.00
2018-02-14T19:41:44.092Z,23.70
2018-02-14T19:44:14.022Z,28.43
2018-02-14T19:46:43.958Z,28.27
2018-02-14T19:49:13.929Z,27.83
2018-02-14T19:51:43.830Z,25.20
2018-02-14T19:54:13.833Z,29.97
2018-02-14T19:56:43.744Z,24.67
2018-02-14T19:59:13.700Z,27.83
2018-02-14T20:01:43.654Z,24.87
2018-02-14T20:04:13.543Z,27.17
2018-02-14T20:06:43.455Z,22.10
2018-02-14T20:09:13.461Z,28.33
2018-02-14T20:11:43.439Z,33.17
2018-02-14T20:14:13.346Z,24.23
2018-02-14T20:16:43.246Z,28.60
2018-02-14T20:19:13.135Z,29.70
2018-02-14T20:21:43.192Z,27.93
2018-02-14T20:24:13.199Z,25.00
2018-02-14T20:26:43.119Z,28.40
2018-02-14T20:29:13.014Z,25.73
2018-02-14T20:31:42.943Z,22.80
2018-02-14T20:34:13.398Z,26.57
2018-02-14T20:36:43.486Z,35.33
2018-02-14T20:39:13.407Z,27.33
2018-02-14T20:41:43.364Z,22.90
2018-02-14T20:44:13.243Z,27.70
2018-02-14T20:46:43.335Z,21.60
2018-02-14T20:49:13.436Z,27.00
2018-02-14T20:51:43.554Z,27.20
2018-02-14T20:54:13.484Z,30.57
2018-02-14T20:56:44.394Z,24.50
2018-02-14T20:59:14.289Z,26.67
2018-02-14T21:01:44.240Z,32.47
2018-02-14T21:04:14.132Z,27.73
2018-02-14T21:06:44.041Z,32.50
2018-02-14T21:09:13.944Z,28.57
2018-02-14T21:11:44.558Z,28.33
2018-02-14T21:14:14.489Z,31.93
2018-02-14T21:16:44.458Z,28.00
2018-02-14T21:19:35.772Z,32.23
2018-02-14T21:22:06.550Z,46.90
2018-02-14T21:24:37.351Z,28.00
2018-02-14T21:27:15.623Z,28.97
2018-02-14T21:29:45.533Z,33.87
2018-02-14T21:32:15.783Z,24.33
2018-02-14T21:34:50.451Z,28.60
2018-02-14T21:37:30.493Z,33.23
2018-02-14T21:40:01.680Z,29.17
2018-02-14T21:42:31.778Z,29.50
2018-02-14T21:45:01.916Z,27.43
2018-02-14T21:47:31.934Z,26.43
2018-02-14T21:52:39.069Z,25.53
2018-02-14T21:55:10.455Z,29.10
2018-02-14T21:57:40.739Z,26.77
2018-02-14T22:00:10.755Z,25.87
2018-02-14T22:02:40.628Z,30.30
2018-02-14T22:05:10.780Z,25.90
2018-02-14T22:07:41.287Z,32.33
2018-02-14T22:10:13.679Z,28.03
2018-02-14T22:15:21.495Z,33.87
2018-02-14T22:17:51.646Z,29.70
2018-02-14T22:20:21.755Z,37.13
2018-02-14T22:22:52.649Z,26.43
2018-02-14T22:25:23.320Z,33.50
2018-02-14T22:27:53.494Z,28.80
2018-02-14T22:30:23.473Z,25.60
2018-02-14T22:32:53.780Z,27.27
2018-02-14T22:35:23.863Z,25.97
2018-02-14T22:37:53.752Z,33.57
2018-02-14T22:40:28.301Z,24.63
2018-02-14T22:45:44.231Z,28.17
2018-02-14T22:48:14.093Z,27.27
2018-02-14T22:50:44.882Z,29.70
2018-02-14T22:53:15.740Z,29.70
2018-02-14T22:55:45.841Z,25.90
2018-02-14T22:58:16.632Z,30.13
2018-02-14T23:00:46.533Z,27.13
2018-02-14T23:03:16.436Z,31.53
2018-02-14T23:05:46.540Z,31.00
2018-02-14T23:08:16.729Z,37.73
2018-02-14T23:10:47.076Z,41.20
2018-02-14T23:13:16.940Z,29.30
2018-02-14T23:15:47.003Z,24.83
2018-02-14T23:18:17.481Z,28.80
2018-02-14T23:20:47.342Z,32.73
2018-02-14T23:23:18.036Z,36.73
2018-02-14T23:25:47.896Z,25.40
2018-02-14T23:28:17.717Z,29.83
2018-02-14T23:30:47.613Z,24.67
2018-02-14T23:33:17.517Z,25.33
2018-02-14T23:35:47.369Z,32.43
2018-02-14T23:38:17.870Z,23.17
2018-02-14T23:40:47.763Z,33.93
2018-02-14T23:43:17.646Z,27.13
2018-02-14T23:45:47.574Z,24.90
2018-02-14T23:48:17.459Z,25.17
2018-02-14T23:50:47.676Z,34.13
2018-02-14T23:53:18.145Z,28.50
2018-02-14T23:55:48.041Z,28.73
2018-02-14T23:58:17.885Z,24.93
